createdAt,value
2017-10-17T00:01:38.222Z,18.70
2017-10-17T00:04:04.638Z,18.50
2017-10-17T00:06:31.209Z,18.50
2017-10-17T00:08:57.554Z,18.50
2017-10-17T00:11:24.120Z,18.50
2017-10-17T00:13:50.570Z,18.50
2017-10-17T00:16:17.660Z,18.40
2017-10-17T00:18:44.715Z,18.40
2017-10-17T00:21:11.075Z,18.40
2017-10-17T00:23:37.438Z,18.40
2017-10-17T00:26:03.807Z,18.50
2017-10-17T00:28:30.166Z,18.40
2017-10-17T00:30:56.664Z,18.40
2017-10-17T00:33:23.032Z,18.40
2017-10-17T00:35:55.117Z,18.50
2017-10-17T00:38:22.302Z,18.40
2017-10-17T00:40:48.652Z,18.40
2017-10-17T00:43:15.741Z,18.40
2017-10-17T00:45:42.151Z,18.40
2017-10-17T00:48:09.257Z,18.40
2017-10-17T00:50:36.467Z,18.70
2017-10-17T00:53:02.765Z,18.30
2017-10-17T00:55:29.205Z,18.50
2017-10-17T00:57:55.526Z,18.40
2017-10-17T01:00:21.861Z,18.40
2017-10-17T01:02:48.182Z,18.40
2017-10-17T01:05:15.261Z,18.30
2017-10-17T01:07:42.300Z,18.30
2017-10-17T01:10:08.640Z,18.50
2017-10-17T01:12:35.844Z,18.20
2017-10-17T01:15:02.169Z,18.20
2017-10-17T01:17:29.212Z,18.20
2017-10-17T01:19:56.513Z,18.30
2017-10-17T01:22:22.900Z,18.20
2017-10-17T01:24:49.441Z,18.20
2017-10-17T01:27:15.823Z,18.20
2017-10-17T01:29:42.149Z,18.10
2017-10-17T01:32:08.449Z,18.10
2017-10-17T01:34:39.630Z,18.10
2017-10-17T01:37:05.960Z,18.10
2017-10-17T01:39:32.272Z,18.10
2017-10-17T01:41:58.581Z,18.20
2017-10-17T01:44:25.629Z,18.00
2017-10-17T01:46:51.940Z,18.00
2017-10-17T01:49:28.099Z,18.30
2017-10-17T01:51:57.372Z,18.00
2017-10-17T01:54:23.872Z,18.00
2017-10-17T01:56:50.192Z,17.90
2017-10-17T01:59:16.508Z,17.90
2017-10-17T02:01:43.542Z,18.00
2017-10-17T02:04:09.872Z,18.00
2017-10-17T02:06:36.197Z,18.00
2017-10-17T02:09:02.529Z,17.90
2017-10-17T02:11:28.837Z,17.90
2017-10-17T02:13:55.148Z,17.90
2017-10-17T02:16:22.291Z,17.90
2017-10-17T02:18:54.359Z,17.90
2017-10-17T02:21:23.645Z,17.80
2017-10-17T02:23:49.977Z,17.90
2017-10-17T02:26:22.320Z,17.90
2017-10-17T02:28:55.665Z,18.00
2017-10-17T02:31:22.885Z,18.10
2017-10-17T02:33:59.618Z,18.10
2017-10-17T02:36:26.977Z,17.90
2017-10-17T02:38:54.023Z,17.90
2017-10-17T02:41:20.441Z,17.80
2017-10-17T02:43:54.542Z,17.80
2017-10-17T02:46:21.079Z,17.80
2017-10-17T02:49:00.180Z,17.70
2017-10-17T02:51:26.513Z,17.70
2017-10-17T02:53:52.839Z,17.80
2017-10-17T02:56:19.163Z,17.70
2017-10-17T02:58:45.632Z,17.60
2017-10-17T03:01:12.928Z,17.60
2017-10-17T03:03:48.372Z,17.70
2017-10-17T03:06:15.476Z,17.70
2017-10-17T03:08:41.986Z,17.70
2017-10-17T03:11:08.330Z,17.70
2017-10-17T03:13:45.709Z,18.10
2017-10-17T03:16:12.036Z,17.70
2017-10-17T03:18:38.372Z,17.70
2017-10-17T03:21:10.491Z,17.60
2017-10-17T03:23:37.585Z,17.40
2017-10-17T03:26:04.020Z,17.40
2017-10-17T03:28:32.312Z,17.30
2017-10-17T03:31:00.575Z,17.20
2017-10-17T03:33:27.661Z,17.30
2017-10-17T03:35:54.108Z,17.30
2017-10-17T03:38:38.648Z,16.90
2017-10-17T03:41:12.288Z,16.70
2017-10-17T03:43:50.064Z,17.00
2017-10-17T03:46:16.406Z,17.00
2017-10-17T03:48:46.501Z,16.90
2017-10-17T03:51:12.841Z,16.80
2017-10-17T03:53:50.012Z,16.80
2017-10-17T03:56:19.254Z,16.40
2017-10-17T03:58:45.716Z,16.70
2017-10-17T04:01:12.021Z,16.60
2017-10-17T04:03:48.285Z,16.60
2017-10-17T04:06:21.456Z,16.50
2017-10-17T04:09:03.637Z,16.50
2017-10-17T04:11:30.016Z,16.40
2017-10-17T04:14:13.968Z,16.30
2017-10-17T04:30:08.353Z,16.20
2017-10-17T04:32:35.514Z,15.90
2017-10-17T04:35:01.941Z,15.90
2017-10-17T04:37:30.993Z,15.80
2017-10-17T04:39:57.306Z,15.80
2017-10-17T04:42:48.642Z,15.80
2017-10-17T04:45:30.739Z,15.80
2017-10-17T05:01:26.373Z,15.60
2017-10-17T05:03:56.616Z,15.50
2017-10-17T05:06:22.977Z,15.50
2017-10-17T05:09:08.105Z,15.50
2017-10-17T05:11:34.469Z,15.40
2017-10-17T05:14:13.057Z,15.40
2017-10-17T05:16:48.117Z,15.40
2017-10-17T05:19:21.373Z,15.30
2017-10-17T05:22:06.550Z,15.40
2017-10-17T05:27:49.636Z,15.40
2017-10-17T05:30:20.881Z,15.40
2017-10-17T05:32:47.225Z,15.40
2017-10-17T05:35:14.421Z,15.40
2017-10-17T05:37:40.829Z,15.30
2017-10-17T05:40:10.110Z,15.30
2017-10-17T05:42:36.606Z,15.60
2017-10-17T05:45:04.777Z,15.30
2017-10-17T05:47:37.205Z,15.20
2017-10-17T05:50:08.496Z,15.10
2017-10-17T05:52:40.868Z,15.10
2017-10-17T05:55:08.137Z,14.90
2017-10-17T05:57:34.465Z,15.20
2017-10-17T06:00:00.804Z,14.80
2017-10-17T06:02:27.132Z,14.80
2017-10-17T06:04:54.210Z,14.80
2017-10-17T06:07:21.245Z,14.80
2017-10-17T06:09:47.580Z,15.30
2017-10-17T06:12:13.865Z,14.80
2017-10-17T06:14:40.182Z,14.80
2017-10-17T06:17:07.257Z,14.80
2017-10-17T06:19:33.700Z,14.90
2017-10-17T06:22:00.353Z,14.80
2017-10-17T06:24:27.408Z,15.00
2017-10-17T06:26:54.483Z,15.00
2017-10-17T06:29:20.794Z,14.90
2017-10-17T06:31:47.132Z,15.00
2017-10-17T06:34:13.444Z,15.00
2017-10-17T06:36:40.496Z,15.10
2017-10-17T06:39:06.814Z,15.10
2017-10-17T06:41:33.868Z,15.10
2017-10-17T06:44:00.174Z,15.40
2017-10-17T06:46:27.268Z,15.40
2017-10-17T06:48:53.600Z,15.30
2017-10-17T06:51:19.938Z,15.70
2017-10-17T06:53:46.265Z,15.60
2017-10-17T06:56:12.576Z,15.70
2017-10-17T06:58:38.885Z,15.70
2017-10-17T07:01:05.328Z,15.80
2017-10-17T07:03:31.867Z,15.90
2017-10-17T07:05:58.190Z,15.90
2017-10-17T07:08:24.498Z,16.10
2017-10-17T07:10:50.913Z,16.10
2017-10-17T07:13:18.084Z,16.20
2017-10-17T07:15:44.389Z,16.20
2017-10-17T07:18:11.560Z,16.30
2017-10-17T07:20:37.876Z,16.30
2017-10-17T07:23:04.264Z,16.40
2017-10-17T07:25:31.401Z,16.50
2017-10-17T07:27:58.512Z,16.50
2017-10-17T07:30:24.621Z,16.50
2017-10-17T07:32:51.477Z,16.50
2017-10-17T07:35:18.353Z,16.60
2017-10-17T07:37:44.478Z,16.60
2017-10-17T07:40:10.719Z,17.20
2017-10-17T07:42:37.657Z,16.90
2017-10-17T07:45:04.517Z,16.90
2017-10-17T07:47:31.451Z,16.90
2017-10-17T07:49:57.562Z,16.90
2017-10-17T07:52:23.713Z,17.00
2017-10-17T07:54:49.849Z,17.10
2017-10-17T07:57:16.019Z,17.20
2017-10-17T07:59:42.163Z,17.20
2017-10-17T08:02:09.077Z,17.00
2017-10-17T08:04:35.237Z,17.00
2017-10-17T08:07:01.518Z,16.90
2017-10-17T08:09:27.669Z,17.00
2017-10-17T08:11:53.840Z,17.10
2017-10-17T08:14:20.116Z,17.10
2017-10-17T08:16:47.004Z,16.90
2017-10-17T08:19:13.137Z,16.90
2017-10-17T08:21:39.273Z,17.00
2017-10-17T08:24:05.502Z,17.00
2017-10-17T08:26:31.632Z,16.90
2017-10-17T08:28:57.778Z,16.90
2017-10-17T08:31:24.000Z,17.10
2017-10-17T08:33:50.124Z,17.00
2017-10-17T08:36:17.004Z,17.30
2017-10-17T08:38:43.161Z,17.30
2017-10-17T08:41:09.319Z,17.20
2017-10-17T08:43:35.504Z,17.30
2017-10-17T08:46:04.913Z,16.90
2017-10-17T08:48:31.795Z,17.20
2017-10-17T08:50:58.194Z,17.20
2017-10-17T08:53:24.580Z,17.10
2017-10-17T08:55:50.722Z,17.10
2017-10-17T08:58:16.868Z,17.00
2017-10-17T09:00:49.054Z,16.90
2017-10-17T09:03:15.348Z,16.90
2017-10-17T09:05:41.762Z,17.00
2017-10-17T09:08:08.110Z,17.70
2017-10-17T09:10:34.416Z,17.10
2017-10-17T09:13:01.488Z,17.30
2017-10-17T09:15:34.169Z,17.30
2017-10-17T09:18:00.653Z,17.30
2017-10-17T09:20:26.976Z,17.50
2017-10-17T09:22:53.365Z,17.60
2017-10-17T09:25:19.786Z,17.60
2017-10-17T09:27:46.881Z,17.70
2017-10-17T09:30:16.744Z,17.70
2017-10-17T09:32:43.083Z,17.90
2017-10-17T09:35:09.433Z,18.20
2017-10-17T09:37:35.803Z,17.90
2017-10-17T09:40:02.909Z,18.00
2017-10-17T09:42:29.237Z,18.00
2017-10-17T09:45:00.146Z,18.20
2017-10-17T09:47:27.211Z,18.20
2017-10-17T09:49:53.560Z,18.20
2017-10-17T09:52:19.868Z,18.30
2017-10-17T09:54:46.200Z,18.40
2017-10-17T09:57:12.526Z,18.40
2017-10-17T09:59:43.341Z,18.50
2017-10-17T10:02:09.653Z,18.50
2017-10-17T10:04:35.984Z,18.60
2017-10-17T10:07:02.324Z,18.60
2017-10-17T10:09:28.657Z,18.60
2017-10-17T10:11:54.988Z,18.50
2017-10-17T10:14:21.391Z,18.30
2017-10-17T10:16:50.427Z,18.20
2017-10-17T10:19:17.123Z,18.40
2017-10-17T10:21:43.514Z,18.50
2017-10-17T10:24:10.584Z,18.80
2017-10-17T10:26:36.886Z,18.70
2017-10-17T10:29:03.319Z,18.80
2017-10-17T10:31:35.090Z,18.70
2017-10-17T10:34:01.446Z,18.80
2017-10-17T10:36:28.509Z,18.80
2017-10-17T10:38:55.601Z,18.90
2017-10-17T10:41:22.672Z,18.80
2017-10-17T10:43:48.998Z,18.80
2017-10-17T10:46:15.325Z,18.80
2017-10-17T10:48:41.648Z,18.90
2017-10-17T10:51:11.944Z,19.40
2017-10-17T10:53:38.993Z,19.00
2017-10-17T10:56:05.353Z,19.10
2017-10-17T10:58:31.734Z,19.10
2017-10-17T11:00:58.061Z,19.20
2017-10-17T11:03:24.393Z,19.20
2017-10-17T11:05:50.714Z,19.40
2017-10-17T11:08:17.064Z,19.20
2017-10-17T11:10:45.557Z,19.10
2017-10-17T11:13:12.628Z,19.20
2017-10-17T11:15:38.976Z,19.20
2017-10-17T11:18:05.348Z,19.10
2017-10-17T11:20:32.419Z,19.30
2017-10-17T11:22:58.737Z,19.30
2017-10-17T11:25:25.058Z,19.40
2017-10-17T11:27:51.367Z,19.70
2017-10-17T11:30:20.831Z,19.50
2017-10-17T11:32:47.162Z,19.50
2017-10-17T11:35:13.496Z,19.60
2017-10-17T11:37:39.825Z,19.60
2017-10-17T11:40:06.258Z,19.70
2017-10-17T11:42:47.808Z,19.70
2017-10-17T11:45:17.678Z,19.70
2017-10-17T11:47:44.014Z,19.50
2017-10-17T11:52:47.914Z,19.70
2017-10-17T11:55:14.258Z,19.60
2017-10-17T11:57:44.024Z,19.60
2017-10-17T12:00:10.341Z,19.70
2017-10-17T12:02:36.673Z,19.70
2017-10-17T12:05:03.016Z,19.70
2017-10-17T12:07:29.324Z,19.70
2017-10-17T12:09:56.505Z,19.50
2017-10-17T12:12:22.804Z,19.50
2017-10-17T12:14:49.133Z,19.60
2017-10-17T12:17:21.769Z,19.70
2017-10-17T12:19:48.857Z,19.50
2017-10-17T12:22:15.917Z,19.60
2017-10-17T12:24:42.369Z,19.60
2017-10-17T12:27:08.673Z,19.60
2017-10-17T12:29:35.002Z,19.90
2017-10-17T12:32:01.316Z,20.00
2017-10-17T12:34:30.935Z,19.70
2017-10-17T12:36:57.266Z,19.90
2017-10-17T12:39:23.568Z,19.90
2017-10-17T12:41:49.869Z,20.00
2017-10-17T12:44:16.327Z,20.00
2017-10-17T12:46:42.637Z,19.70
2017-10-17T12:49:08.944Z,19.90
2017-10-17T12:51:35.259Z,20.00
2017-10-17T12:54:02.418Z,20.30
2017-10-17T12:56:29.162Z,20.40
2017-10-17T12:58:55.497Z,20.50
2017-10-17T13:01:21.886Z,20.30
2017-10-17T13:03:48.196Z,20.30
2017-10-17T13:06:14.513Z,20.30
2017-10-17T13:08:40.837Z,20.30
2017-10-17T13:11:07.885Z,20.20
2017-10-17T13:13:34.200Z,20.20
2017-10-17T13:16:00.531Z,20.10
2017-10-17T13:18:26.909Z,20.00
2017-10-17T13:20:53.297Z,19.90
2017-10-17T13:23:19.636Z,20.10
2017-10-17T13:25:45.929Z,20.30
2017-10-17T13:28:13.024Z,20.20
2017-10-17T13:30:39.349Z,20.20
2017-10-17T13:33:05.718Z,20.20
2017-10-17T13:35:32.050Z,20.20
2017-10-17T13:37:58.460Z,20.20
2017-10-17T13:40:25.537Z,20.30
2017-10-17T13:42:51.866Z,20.30
2017-10-17T13:45:18.965Z,20.20
2017-10-17T13:47:45.341Z,20.10
2017-10-17T13:50:11.694Z,20.00
2017-10-17T13:52:38.068Z,20.10
2017-10-17T13:55:04.392Z,20.00
2017-10-17T13:57:30.747Z,20.10
2017-10-17T13:59:57.068Z,20.10
2017-10-17T14:02:23.389Z,20.00
2017-10-17T14:04:49.725Z,20.10
2017-10-17T14:07:16.133Z,20.10
2017-10-17T14:09:42.528Z,20.10
2017-10-17T14:12:08.945Z,20.20
2017-10-17T14:14:35.436Z,20.20
2017-10-17T14:17:02.541Z,20.10
2017-10-17T14:19:28.910Z,20.10
2017-10-17T14:21:55.321Z,20.10
2017-10-17T14:24:21.706Z,20.10
2017-10-17T14:26:48.032Z,19.90
2017-10-17T14:29:15.159Z,20.10
2017-10-17T14:31:41.546Z,20.00
2017-10-17T14:34:07.946Z,19.90
2017-10-17T14:36:34.701Z,19.70
2017-10-17T14:39:01.917Z,19.70
2017-10-17T14:41:28.320Z,19.70
2017-10-17T14:43:55.027Z,19.70
2017-10-17T14:46:22.133Z,19.70
2017-10-17T14:48:48.463Z,19.70
2017-10-17T14:51:14.866Z,19.70
2017-10-17T14:53:41.224Z,19.80
2017-10-17T14:56:07.553Z,19.80
2017-10-17T14:58:33.897Z,19.70
2017-10-17T15:01:00.260Z,19.80
2017-10-17T15:03:27.532Z,19.80
2017-10-17T15:05:53.956Z,19.80
2017-10-17T15:08:20.285Z,19.60
2017-10-17T15:10:46.694Z,19.50
2017-10-17T15:13:13.084Z,19.40
2017-10-17T15:15:39.435Z,19.60
2017-10-17T15:18:05.784Z,19.50
2017-10-17T15:20:32.368Z,19.50
2017-10-17T15:22:58.725Z,19.30
2017-10-17T15:25:25.776Z,19.30
2017-10-17T15:27:52.840Z,19.40
2017-10-17T15:30:19.220Z,19.40
2017-10-17T15:32:45.600Z,19.50
2017-10-17T15:35:12.376Z,19.50
2017-10-17T15:37:38.725Z,19.20
2017-10-17T15:40:05.033Z,19.00
2017-10-17T15:42:32.209Z,18.60
2017-10-17T15:44:58.571Z,18.60
2017-10-17T15:47:24.859Z,18.50
2017-10-17T15:49:51.249Z,18.50
2017-10-17T15:52:17.566Z,18.40
2017-10-17T15:57:15.982Z,18.20
2017-10-17T15:59:42.577Z,18.00
2017-10-17T16:02:08.896Z,17.80
2017-10-17T16:04:35.902Z,17.90
2017-10-17T16:07:02.285Z,17.70
2017-10-17T16:09:28.806Z,17.70
2017-10-17T16:12:08.535Z,17.60
2017-10-17T16:14:35.394Z,17.50
2017-10-17T16:17:01.549Z,17.60
2017-10-17T16:19:27.653Z,17.40
2017-10-17T16:21:53.761Z,17.40
2017-10-17T16:24:19.850Z,17.40
2017-10-17T16:26:46.708Z,17.20
2017-10-17T16:29:13.590Z,17.10
2017-10-17T16:31:40.434Z,17.00
2017-10-17T16:34:06.630Z,17.20
2017-10-17T16:36:32.739Z,16.90
2017-10-17T16:38:59.608Z,16.70
2017-10-17T16:41:25.745Z,16.60
2017-10-17T16:43:51.862Z,16.60
2017-10-17T16:46:17.978Z,16.60
2017-10-17T16:48:44.116Z,16.50
2017-10-17T16:51:10.337Z,16.50
2017-10-17T16:53:36.473Z,16.50
2017-10-17T16:56:02.606Z,16.30
2017-10-17T16:58:28.712Z,16.20
2017-10-17T17:00:54.847Z,16.20
2017-10-17T17:03:20.965Z,16.20
2017-10-17T17:05:47.823Z,16.20
2017-10-17T17:08:13.951Z,16.10
2017-10-17T17:10:40.812Z,16.00
2017-10-17T17:13:07.670Z,15.90
2017-10-17T17:15:34.557Z,15.90
2017-10-17T17:18:00.672Z,15.90
2017-10-17T17:20:27.541Z,15.70
2017-10-17T17:22:54.008Z,15.70
2017-10-17T17:25:20.113Z,15.70
2017-10-17T17:27:46.216Z,15.60
2017-10-17T17:30:12.336Z,15.60
2017-10-17T17:32:38.565Z,15.50
2017-10-17T17:35:04.713Z,15.40
2017-10-17T17:37:30.854Z,15.30
2017-10-17T17:39:56.977Z,15.50
2017-10-17T17:42:23.461Z,15.40
2017-10-17T17:44:50.317Z,15.40
2017-10-17T17:47:16.440Z,15.40
2017-10-17T17:49:42.736Z,15.30
2017-10-17T17:52:09.269Z,15.30
2017-10-17T17:54:35.475Z,15.30
2017-10-17T17:57:01.705Z,15.30
2017-10-17T17:59:27.816Z,15.30
2017-10-17T18:01:53.962Z,15.20
2017-10-17T18:04:20.081Z,15.20
2017-10-17T18:06:46.270Z,15.10
2017-10-17T18:09:12.396Z,15.10
2017-10-17T18:11:38.545Z,15.00
2017-10-17T18:14:05.790Z,15.00
2017-10-17T18:16:32.046Z,15.00
2017-10-17T18:18:58.189Z,15.00
2017-10-17T18:21:27.941Z,15.00
2017-10-17T18:23:54.424Z,15.30
2017-10-17T18:26:20.565Z,14.90
2017-10-17T18:28:46.931Z,14.80
2017-10-17T18:31:13.070Z,14.80
2017-10-17T18:33:39.226Z,14.70
2017-10-17T18:36:07.373Z,14.70
2017-10-17T18:38:33.600Z,14.80
2017-10-17T18:40:59.740Z,14.70
2017-10-17T18:43:25.875Z,14.70
2017-10-17T18:45:55.110Z,14.80
2017-10-17T18:48:21.388Z,15.10
2017-10-17T18:50:47.585Z,14.80
2017-10-17T18:53:13.818Z,14.90
2017-10-17T18:55:40.183Z,14.80
2017-10-17T18:58:06.373Z,14.90
2017-10-17T19:00:32.501Z,14.90
2017-10-17T19:02:58.709Z,14.80
2017-10-17T19:05:26.071Z,14.70
2017-10-17T19:07:52.960Z,14.60
2017-10-17T19:10:19.089Z,15.00
2017-10-17T19:12:45.979Z,14.60
2017-10-17T19:15:12.114Z,15.10
2017-10-17T19:17:38.248Z,14.50
2017-10-17T19:20:04.384Z,14.20
2017-10-17T19:22:30.509Z,14.50
2017-10-17T19:24:57.426Z,14.40
2017-10-17T19:27:23.578Z,14.40
2017-10-17T19:29:50.063Z,14.10
2017-10-17T19:32:16.238Z,14.50
2017-10-17T19:34:42.482Z,14.20
2017-10-17T19:37:08.700Z,14.30
2017-10-17T19:39:34.837Z,14.40
2017-10-17T19:42:00.953Z,14.30
2017-10-17T19:44:27.081Z,14.30
2017-10-17T19:46:54.017Z,14.30
2017-10-17T19:49:20.249Z,14.30
2017-10-17T19:51:47.117Z,14.40
2017-10-17T19:54:14.000Z,14.40
2017-10-17T19:56:40.109Z,14.40
2017-10-17T19:59:07.808Z,14.20
2017-10-17T20:01:34.018Z,14.20
2017-10-17T20:04:00.244Z,14.20
2017-10-17T20:06:26.398Z,14.20
2017-10-17T20:08:52.573Z,14.20
2017-10-17T20:11:18.821Z,14.20
2017-10-17T20:13:45.022Z,14.10
2017-10-17T20:16:11.919Z,14.00
2017-10-17T20:18:38.039Z,14.00
2017-10-17T20:21:06.116Z,13.90
2017-10-17T20:23:32.316Z,13.90
2017-10-17T20:25:58.451Z,14.30
2017-10-17T20:28:24.745Z,13.80
2017-10-17T20:30:50.922Z,13.50
2017-10-17T20:33:17.213Z,13.80
2017-10-17T20:35:44.111Z,13.70
2017-10-17T20:38:10.289Z,13.80
2017-10-17T20:40:36.437Z,13.60
2017-10-17T20:43:02.585Z,13.60
2017-10-17T20:45:29.609Z,13.60
2017-10-17T20:47:55.725Z,13.60
2017-10-17T20:50:21.954Z,13.60
2017-10-17T20:52:48.074Z,13.60
2017-10-17T20:55:14.204Z,13.60
2017-10-17T20:57:41.128Z,13.60
2017-10-17T21:00:07.275Z,13.60
2017-10-17T21:02:33.641Z,13.60
2017-10-17T21:04:59.967Z,13.50
2017-10-17T21:07:26.269Z,13.50
2017-10-17T21:09:52.696Z,13.50
2017-10-17T21:12:19.009Z,13.50
2017-10-17T21:14:45.353Z,14.00
2017-10-17T21:17:12.464Z,13.20
2017-10-17T21:19:38.787Z,13.20
2017-10-17T21:22:05.089Z,13.30
2017-10-17T21:24:32.161Z,13.30
2017-10-17T21:26:59.062Z,13.30
2017-10-17T21:29:25.246Z,13.50
2017-10-17T21:31:52.116Z,13.30
2017-10-17T21:34:18.233Z,13.20
2017-10-17T21:36:44.537Z,13.20
2017-10-17T21:39:11.894Z,13.20
2017-10-17T21:41:38.048Z,13.20
2017-10-17T21:44:04.202Z,13.00
2017-10-17T21:46:30.305Z,13.30
2017-10-17T21:48:56.646Z,13.40
2017-10-17T21:51:22.993Z,13.50
2017-10-17T21:53:49.338Z,13.40
2017-10-17T21:56:15.659Z,13.70
2017-10-17T21:58:42.005Z,13.40
2017-10-17T22:01:09.261Z,13.50
2017-10-17T22:03:35.576Z,13.70
2017-10-17T22:06:01.919Z,13.40
2017-10-17T22:08:29.572Z,13.50
2017-10-17T22:10:55.898Z,13.50
2017-10-17T22:13:22.237Z,13.60
2017-10-17T22:15:48.604Z,13.30
2017-10-17T22:18:15.652Z,13.20
2017-10-17T22:20:41.777Z,13.20
2017-10-17T22:23:08.071Z,13.20
2017-10-17T22:25:34.437Z,13.20
2017-10-17T22:28:00.774Z,13.20
2017-10-17T22:30:27.101Z,13.10
2017-10-17T22:32:53.442Z,13.20
2017-10-17T22:35:19.793Z,13.40
2017-10-17T22:37:46.868Z,13.20
2017-10-17T22:40:13.188Z,13.20
2017-10-17T22:42:39.497Z,13.10
2017-10-17T22:45:05.834Z,13.10
2017-10-17T22:47:32.132Z,13.10
2017-10-17T22:49:58.468Z,12.90
2017-10-17T22:52:24.834Z,12.90
2017-10-17T22:54:51.186Z,13.20
2017-10-17T22:57:18.234Z,13.00
2017-10-17T22:59:44.554Z,12.90
2017-10-17T23:02:10.873Z,12.80
2017-10-17T23:04:37.232Z,12.80
2017-10-17T23:07:04.309Z,12.80
2017-10-17T23:09:30.888Z,12.90
2017-10-17T23:11:57.211Z,12.80
2017-10-17T23:14:23.528Z,12.70
2017-10-17T23:17:02.984Z,12.70
2017-10-17T23:19:42.420Z,12.70
2017-10-17T23:22:08.568Z,12.70
2017-10-17T23:24:35.631Z,12.60
2017-10-17T23:27:02.579Z,12.60
2017-10-17T23:29:29.643Z,12.60
2017-10-17T23:31:55.964Z,12.50
2017-10-17T23:34:22.300Z,12.80
2017-10-17T23:36:48.658Z,12.50
2017-10-17T23:39:15.041Z,12.50
2017-10-17T23:41:41.370Z,12.50
2017-10-17T23:44:07.728Z,12.50
2017-10-17T23:46:34.057Z,12.50
2017-10-17T23:49:00.530Z,12.40
2017-10-17T23:51:26.865Z,12.40
2017-10-17T23:53:53.189Z,12.30
2017-10-17T23:56:20.249Z,12.30
2017-10-17T23:58:47.308Z,12.40
